EGPD/ABZ METAR and TAF weather

Enter ICAO airport designator
Station Type Date Time Source
EGPD METAR 2018/01/21 12:20 UTC NOAA

EGPD 211220Z 17006KT 9999 SCT025 02/00 Q1007


Station Type Date Time Source
EGPD Decoded METAR 2018/01/21 12:20 UTC NOAA

Aberdeen / Dyce, United Kingdom (EGPD) 57-12N 002-13W 0M
Jan 21, 2018 - 07:20 AM EST / 2018.01.21 1220 UTC
Wind: from the S (170 degrees) at 7 MPH (6 KT):0
Visibility: greater than 7 mile(s):0
Sky conditions: partly cloudy
Temperature: 35 F (2 C)
Windchill: 28 F (-2 C):1
Dew Point: 32 F (0 C)
Relative Humidity: 86%
Pressure (altimeter): 29.74 in. Hg (1007 hPa)
ob: EGPD 211220Z 17006KT 9999 SCT025 02/00 Q1007
cycle: 12

Station Type Date Time Source
EGPD TAF 2018/01/21 12:15 UTC NOAA

TAF EGPD 211101Z 2112/2212 16012KT 9999 FEW025
TEMPO 2113/2121 17015G25KT 6000 -RASN BKN008
BECMG 2115/2118 BKN014 PROB30
TEMPO 2116/2120 3000 SN BKN004
BECMG 2120/2123 23007KT FEW040


Example: see airport list